Portada
METAR-TAF:

METAR-TAF

Aeropuertos :

Frosinone, Italia

latitud: 41-38N, longitud: 013-18E, altitud: 180 m

Observación

El informe se hizo hace 10 horas y 26 minutos, a las 17:55 UTC
Viento 4 kt del este-sureste
Temperatura 13°C
Humedad 88%
Presión 1019 hPa
Visibilidad: 7000 m
Escasas nubes a una altura de 2500 ft

METAR: LIRH 241755Z 11004KT 7000 FEW025 13/11 Q1019 RMK FEW MON INVIS VAR RAPID VIS MIN 7000 WIND THR16 /////KT WHT

Hora: 05:21 (04:21 UTC)

Pronóstico

El informe se hizo hace 14 horas y 21 minutos, a las 14:00 UTC
Pronóstico válido del 24 a las 15 UTC al 24 a las 24 UTC
Viento 10 kt del sur-sureste
Visibilidad: 8000 m
Nubes dispersas a una altura de 3500 ft
Evolucionando progresivamente
del 24 a las 18 UTC al 24 a las 20 UTC
Viento 3 kt con dirección variable

TAF: LIRH 241400Z 2415/2424 16010KT 8000 SCT035 BECMG 2418/2420 VRB03KT

Observaciones y pronósticos meteorológicos de más de 4000 aeropuertos (mensajes METAR y TAF).

Los puntos amarillos y rojos representan las estaciones disponibles.

Ponga el ratón en el punto deseado para ver el nombre de la estación.

Haga clic para ver las observaciones y los pronósticos meteorológicos.

Para cambiar el mapa : haga clic en los botones verdes con una cruz de color negro para hacer un zoom, en el botón verde con un guión para alejar o en las flechas verdes para mapas adyacentes.


METAR-TAF: